Time;durP1;ratioP1;P1;durP2;ratioP2;P2;SDS_P1;SDS_P2;PMS_P1;PMS_P2;Temp;Humidity;BMP_temperature;BMP_pressure;BME280_temperature;BME280_humidity;BME280_pressure;Samples;Min_cycle;Max_cycle;Signal;HPM_P1;HPM_P2
2023/09/28 00:00:46;;;;;;;15.45;13.85;;;18.50;99.90;;;;;;5061131;28;20553;-75
2023/09/28 00:02:45;;;;;;;14.15;12.77;;;18.50;99.90;;;;;;5043803;28;20106;-75
2023/09/28 00:05:12;;;;;;;13.23;11.93;;;18.40;99.90;;;;;;5048680;28;20152;-75
2023/09/28 00:07:39;;;;;;;;;;;18.40;99.90;;;;;;5052434;28;20045;-75
2023/09/28 00:10:11;;;;;;;13.13;11.70;;;18.40;99.90;;;;;;5053755;28;20415;-75
2023/09/28 00:12:39;;;;;;;11.90;10.73;;;18.40;99.90;;;;;;5051572;28;20052;-76
2023/09/28 00:15:05;;;;;;;12.77;11.48;;;18.40;99.90;;;;;;5055770;28;20507;-75
2023/09/28 00:17:32;;;;;;;11.85;10.73;;;18.40;99.90;;;;;;5048793;28;20049;-75
2023/09/28 00:19:58;;;;;;;11.80;10.52;;;18.40;99.90;;;;;;5059352;28;20051;-75
2023/09/28 00:22:24;;;;;;;12.63;10.77;;;18.40;99.90;;;;;;5061223;28;20052;-75
2023/09/28 00:24:50;;;;;;;11.95;10.75;;;18.40;99.90;;;;;;5056939;28;20044;-76
2023/09/28 00:27:16;;;;;;;12.25;10.98;;;18.40;99.90;;;;;;5054475;28;20064;-75
2023/09/28 00:29:41;;;;;;;12.43;11.13;;;18.40;99.90;;;;;;5059143;28;20055;-75
2023/09/28 00:32:08;;;;;;;11.32;10.23;;;18.40;99.90;;;;;;5052138;28;20127;-75
2023/09/28 00:34:33;;;;;;;13.73;10.27;;;18.40;99.90;;;;;;5061641;28;20113;-75
2023/09/28 00:36:59;;;;;;;11.68;10.68;;;18.40;99.90;;;;;;5055611;28;20902;-75
2023/09/28 00:39:26;;;;;;;11.20;9.75;;;18.40;99.90;;;;;;5054395;28;20539;-75
2023/09/28 00:41:52;;;;;;;12.05;10.68;;;18.40;99.90;;;;;;5049007;28;20124;-75
2023/09/28 00:44:17;;;;;;;12.13;10.85;;;18.40;99.90;;;;;;5052688;28;20487;-75
2023/09/28 00:46:44;;;;;;;11.38;9.70;;;18.40;99.90;;;;;;5047282;28;20055;-75
2023/09/28 00:49:13;;;;;;;9.77;8.88;;;18.40;99.90;;;;;;5052926;28;20562;-75
2023/09/28 00:51:39;;;;;;;11.38;10.30;;;18.40;99.90;;;;;;5057147;28;20348;-74
2023/09/28 00:54:11;;;;;;;12.37;10.57;;;18.40;99.90;;;;;;5052965;28;20098;-73
2023/09/28 00:56:37;;;;;;;11.70;10.60;;;18.40;99.90;;;;;;5052050;28;20553;-73
2023/09/28 00:59:03;;;;;;;12.50;11.40;;;18.40;99.90;;;;;;5049966;28;20945;-73
2023/09/28 01:01:31;;;;;;;13.07;11.95;;;18.40;99.90;;;;;;5060860;28;20045;-73
2023/09/28 01:04:00;;;;;;;13.00;11.70;;;18.40;99.90;;;;;;5060446;28;20827;-73
2023/09/28 01:06:26;;;;;;;12.60;11.48;;;18.40;99.90;;;;;;5051183;28;20045;-73
2023/09/28 01:08:55;;;;;;;12.93;11.75;;;18.40;99.90;;;;;;5050062;28;20057;-73
2023/09/28 01:11:20;;;;;;;13.48;12.02;;;18.40;99.90;;;;;;5057326;28;20040;-73
2023/09/28 01:13:47;;;;;;;14.15;11.43;;;18.40;99.90;;;;;;5053105;28;20033;-73
2023/09/28 01:16:13;;;;;;;12.60;11.50;;;18.40;99.90;;;;;;5052239;28;20037;-73
2023/09/28 01:18:39;;;;;;;12.43;11.18;;;18.40;99.90;;;;;;5053382;28;20307;-72
2023/09/28 01:21:10;;;;;;;12.27;11.18;;;18.40;99.90;;;;;;5054354;28;20053;-72
2023/09/28 01:23:36;;;;;;;11.90;10.80;;;18.40;99.90;;;;;;5059361;28;20052;-73
2023/09/28 01:26:02;;;;;;;12.05;10.85;;;18.30;99.90;;;;;;5051797;28;20060;-72
2023/09/28 01:28:28;;;;;;;11.38;10.27;;;18.30;99.90;;;;;;5045720;28;20036;-72
2023/09/28 01:30:54;;;;;;;12.35;10.55;;;18.40;99.90;;;;;;5048280;28;20388;-73
2023/09/28 01:33:20;;;;;;;11.98;10.68;;;18.30;99.90;;;;;;5058075;28;20041;-73
2023/09/28 01:35:45;;;;;;;11.57;9.70;;;18.30;99.90;;;;;;5045729;28;20041;-73
2023/09/28 01:38:32;;;;;;;11.57;9.90;;;18.30;99.90;;;;;;5058820;28;20044;-73
2023/09/28 01:40:58;;;;;;;10.88;9.93;;;18.40;99.90;;;;;;5055263;28;20450;-73
2023/09/28 01:43:23;;;;;;;10.38;9.27;;;18.30;99.90;;;;;;5050138;28;20432;-72
2023/09/28 01:45:49;;;;;;;10.10;8.65;;;18.30;99.90;;;;;;5051089;28;20049;-73
2023/09/28 01:48:15;;;;;;;9.85;8.85;;;18.30;99.90;;;;;;5053815;28;20376;-73
2023/09/28 01:50:41;;;;;;;10.40;9.43;;;18.30;99.90;;;;;;5058823;28;20048;-72
2023/09/28 01:53:07;;;;;;;11.32;9.63;;;18.30;99.90;;;;;;5061173;28;20124;-72
2023/09/28 01:55:33;;;;;;;10.23;9.23;;;18.30;99.90;;;;;;5057229;28;20047;-73
2023/09/28 01:57:59;;;;;;;10.63;9.57;;;18.30;99.90;;;;;;5062522;28;20128;-72
2023/09/28 02:00:26;;;;;;;10.80;9.70;;;18.30;99.90;;;;;;5053045;28;20579;-73
2023/09/28 02:02:55;;;;;;;11.68;9.23;;;18.20;99.90;;;;;;5051021;28;20057;-75
2023/09/28 02:05:32;;;;;;;10.45;8.70;;;18.20;99.90;;;;;;5050589;28;20377;-74
2023/09/28 02:07:58;;;;;;;;;;;18.20;99.90;;;;;;5053153;28;20119;-75
2023/09/28 02:10:24;;;;;;;8.70;7.82;;;18.20;99.90;;;;;;5054003;28;19939;-75
2023/09/28 02:12:50;;;;;;;9.13;8.23;;;18.20;99.90;;;;;;5050236;28;20041;-75
2023/09/28 02:15:16;;;;;;;9.85;8.68;;;18.20;99.90;;;;;;5050914;28;20041;-75
2023/09/28 02:17:44;;;;;;;9.57;8.68;;;18.10;99.90;;;;;;5054528;28;20390;-75
2023/09/28 02:20:10;;;;;;;9.30;8.40;;;18.10;99.90;;;;;;5034542;28;20047;-75
2023/09/28 02:22:46;;;;;;;11.47;8.97;;;18.10;99.90;;;;;;5050626;28;20120;-75
2023/09/28 02:25:19;;;;;;;11.32;8.52;;;18.00;99.90;;;;;;5050350;28;20291;-75
2023/09/28 02:27:45;;;;;;;8.98;8.07;;;18.00;99.90;;;;;;5055053;28;20399;-75
2023/09/28 02:30:14;;;;;;;9.95;8.57;;;18.00;99.90;;;;;;5059699;28;20052;-75
2023/09/28 02:32:40;;;;;;;9.40;8.40;;;18.00;99.90;;;;;;5055433;28;20049;-75
2023/09/28 02:35:07;;;;;;;9.63;8.73;;;18.00;99.90;;;;;;5053468;28;20052;-75
2023/09/28 02:37:33;;;;;;;;;;;18.00;99.90;;;;;;5047441;28;20041;-75
2023/09/28 02:39:59;;;;;;;9.13;8.23;;;17.90;99.90;;;;;;5048790;28;20517;-75
2023/09/28 02:42:25;;;;;;;8.52;7.70;;;17.90;99.90;;;;;;5051235;28;20076;-75
2023/09/28 02:44:50;;;;;;;8.80;7.57;;;17.90;99.90;;;;;;5050169;28;20084;-75
2023/09/28 02:47:16;;;;;;;9.57;7.30;;;17.90;99.90;;;;;;5047762;28;20052;-75
2023/09/28 02:49:43;;;;;;;10.68;7.53;;;17.90;99.90;;;;;;5054642;28;20047;-75
2023/09/28 02:52:10;;;;;;;9.35;7.32;;;17.90;99.90;;;;;;5063481;28;20455;-75
2023/09/28 02:54:36;;;;;;;10.38;7.40;;;17.90;99.90;;;;;;5063525;28;20155;-75
2023/09/28 02:57:01;;;;;;;9.73;7.18;;;17.90;99.90;;;;;;5048416;28;20175;-75
2023/09/28 02:59:27;;;;;;;11.02;7.57;;;17.90;99.90;;;;;;5053899;28;20082;-75
2023/09/28 03:01:54;;;;;;;8.48;6.93;;;17.90;99.90;;;;;;5052589;28;20060;-74
2023/09/28 03:04:19;;;;;;;8.23;7.23;;;17.80;99.90;;;;;;5062692;28;20045;-75
2023/09/28 03:06:46;;;;;;;9.30;7.32;;;17.80;99.90;;;;;;5057069;28;20306;-75
2023/09/28 03:09:12;;;;;;;9.25;7.32;;;17.80;99.90;;;;;;5057531;28;20076;-75
2023/09/28 03:11:41;;;;;;;10.43;7.13;;;17.80;99.90;;;;;;5061227;28;20494;-75
2023/09/28 03:14:07;;;;;;;9.00;6.80;;;17.80;99.90;;;;;;5051309;28;20529;-75
2023/09/28 03:16:33;;;;;;;8.80;7.00;;;17.80;99.90;;;;;;5050617;28;20126;-75
2023/09/28 03:19:00;;;;;;;10.37;7.40;;;17.70;99.90;;;;;;5048170;28;20056;-75
2023/09/28 03:21:29;;;;;;;;;;;17.70;99.90;;;;;;5048750;28;20059;-75
2023/09/28 03:24:01;;;;;;;9.13;7.78;;;17.70;99.90;;;;;;5062365;28;19985;-75
2023/09/28 03:26:30;;;;;;;8.20;7.40;;;17.70;99.90;;;;;;5060156;28;20044;-75
2023/09/28 03:28:59;;;;;;;9.80;7.07;;;17.70;99.90;;;;;;5053513;28;20045;-75
2023/09/28 03:31:27;;;;;;;10.27;7.88;;;17.60;99.90;;;;;;5062582;28;20032;-75
2023/09/28 03:33:56;;;;;;;11.93;7.72;;;17.60;99.90;;;;;;5053601;28;20043;-75
2023/09/28 03:36:22;;;;;;;8.65;7.13;;;17.60;99.90;;;;;;5053073;28;20087;-74
2023/09/28 03:38:48;;;;;;;9.40;7.53;;;17.60;99.90;;;;;;5046203;28;20087;-75
2023/09/28 03:41:14;;;;;;;9.55;7.50;;;17.60;99.90;;;;;;5049156;28;20084;-75
2023/09/28 03:43:42;;;;;;;8.70;7.35;;;17.60;99.90;;;;;;5049984;28;20098;-75
2023/09/28 03:46:08;;;;;;;8.95;7.72;;;17.50;99.90;;;;;;5048860;28;20978;-75
2023/09/28 03:48:34;;;;;;;11.15;7.50;;;17.50;99.90;;;;;;5052397;28;20052;-75
2023/09/28 03:51:03;;;;;;;9.38;7.63;;;17.50;99.90;;;;;;5047860;28;20086;-75
2023/09/28 03:53:33;;;;;;;9.95;7.53;;;17.50;99.90;;;;;;5052778;28;20044;-75
2023/09/28 03:55:59;;;;;;;10.55;7.50;;;17.50;99.90;;;;;;5046915;28;20049;-75
2023/09/28 03:58:25;;;;;;;9.10;8.02;;;17.40;99.90;;;;;;5051094;28;20090;-75
2023/09/28 04:00:51;;;;;;;10.75;7.68;;;17.40;99.90;;;;;;5047220;28;20048;-75
2023/09/28 04:03:16;;;;;;;8.63;7.40;;;17.40;99.90;;;;;;5055762;28;20122;-75
2023/09/28 04:05:42;;;;;;;9.30;7.28;;;17.30;99.90;;;;;;5059496;28;20049;-74
2023/09/28 04:08:08;;;;;;;10.50;7.82;;;17.30;99.90;;;;;;5052409;28;20523;-75
2023/09/28 04:10:34;;;;;;;8.40;7.47;;;17.40;99.90;;;;;;5057404;28;20041;-75
2023/09/28 04:13:03;;;;;;;8.82;6.82;;;17.30;99.90;;;;;;5050300;28;20048;-75
2023/09/28 04:15:30;;;;;;;9.02;7.70;;;17.30;99.90;;;;;;5056110;28;20468;-75
2023/09/28 04:17:55;;;;;;;8.60;7.70;;;17.30;99.90;;;;;;5052136;28;20036;-75
2023/09/28 04:20:21;;;;;;;11.93;8.05;;;17.20;99.90;;;;;;5047897;28;20048;-75
2023/09/28 04:22:47;;;;;;;8.35;7.43;;;17.20;99.90;;;;;;5049527;28;20045;-74
2023/09/28 04:25:13;;;;;;;7.78;7.00;;;17.20;99.90;;;;;;5047214;28;20055;-75
2023/09/28 04:27:39;;;;;;;9.13;8.17;;;17.20;99.90;;;;;;5055192;28;20495;-75
2023/09/28 04:30:05;;;;;;;10.25;7.60;;;17.10;99.90;;;;;;5048757;28;20037;-75
2023/09/28 04:32:31;;;;;;;7.90;7.10;;;17.10;99.90;;;;;;5031935;28;20055;-75
2023/09/28 04:34:57;;;;;;;9.20;7.72;;;17.10;99.90;;;;;;5057032;28;20295;-75
2023/09/28 04:37:25;;;;;;;11.20;7.57;;;17.00;99.90;;;;;;5048706;28;20397;-75
2023/09/28 04:39:53;;;;;;;8.82;7.55;;;17.00;99.90;;;;;;5056279;28;20036;-75
2023/09/28 04:42:20;;;;;;;8.93;8.02;;;17.00;99.90;;;;;;5051613;28;20056;-75
2023/09/28 04:44:46;;;;;;;;;;;17.00;99.90;;;;;;5048923;28;20041;-75
2023/09/28 04:47:12;;;;;;;9.30;7.75;;;16.90;99.90;;;;;;5053769;28;19924;-75
2023/09/28 04:49:41;;;;;;;10.23;7.88;;;16.90;99.90;;;;;;5052891;28;20122;-74
2023/09/28 04:52:10;;;;;;;8.05;7.25;;;16.90;99.90;;;;;;5049554;28;22219;-75
2023/09/28 04:54:36;;;;;;;9.65;7.82;;;16.90;99.90;;;;;;5054501;28;20045;-75
2023/09/28 04:57:01;;;;;;;10.57;7.82;;;16.90;99.90;;;;;;5048613;28;20048;-75
2023/09/28 04:59:27;;;;;;;8.18;7.38;;;16.90;99.90;;;;;;5061479;28;20455;-75
2023/09/28 05:01:53;;;;;;;9.13;8.18;;;16.90;99.90;;;;;;5051688;28;22019;-75
2023/09/28 05:04:19;;;;;;;9.38;7.80;;;16.90;99.90;;;;;;5055870;28;20142;-75
2023/09/28 05:06:45;;;;;;;8.90;8.00;;;16.80;99.90;;;;;;5045211;28;20041;-75
2023/09/28 05:09:13;;;;;;;10.05;8.10;;;16.80;99.90;;;;;;5046855;28;20956;-75
2023/09/28 05:11:39;;;;;;;11.10;8.43;;;16.80;99.90;;;;;;5050507;28;20135;-75
2023/09/28 05:14:05;;;;;;;10.88;7.90;;;16.80;99.90;;;;;;5046205;28;20072;-75
2023/09/28 05:16:30;;;;;;;12.15;8.55;;;16.80;99.90;;;;;;5052440;28;20115;-75
2023/09/28 05:18:56;;;;;;;10.57;9.10;;;16.80;99.90;;;;;;5053885;28;20041;-75
2023/09/28 05:21:23;;;;;;;11.48;8.40;;;16.80;99.90;;;;;;5050195;28;20586;-75
2023/09/28 05:23:50;;;;;;;10.05;8.20;;;16.80;99.90;;;;;;5051953;28;20045;-75
2023/09/28 05:26:16;;;;;;;9.90;8.60;;;16.80;99.90;;;;;;5054177;28;20059;-75
2023/09/28 05:28:42;;;;;;;10.60;8.50;;;16.80;99.90;;;;;;5053142;28;20119;-75
2023/09/28 05:31:08;;;;;;;8.98;7.78;;;16.80;99.90;;;;;;5057153;28;20128;-75
2023/09/28 05:33:33;;;;;;;10.85;8.48;;;16.80;99.90;;;;;;5053769;28;20071;-75
2023/09/28 05:35:59;;;;;;;11.20;8.32;;;16.80;99.90;;;;;;5051420;28;20570;-74
2023/09/28 05:38:25;;;;;;;10.60;7.68;;;16.80;99.90;;;;;;5057795;28;20048;-75
2023/09/28 05:40:50;;;;;;;9.20;7.75;;;16.80;99.90;;;;;;5052501;28;20068;-75
2023/09/28 05:43:16;;;;;;;11.98;8.77;;;16.80;99.90;;;;;;5053050;28;20162;-73
2023/09/28 05:45:42;;;;;;;9.40;8.35;;;16.80;99.90;;;;;;5055137;28;20120;-75
2023/09/28 05:48:07;;;;;;;10.30;8.82;;;16.80;99.90;;;;;;5048582;28;20256;-73
2023/09/28 05:50:33;;;;;;;10.82;8.73;;;16.80;99.90;;;;;;5056427;28;20064;-73
2023/09/28 05:52:59;;;;;;;10.60;9.05;;;16.80;99.90;;;;;;5050544;28;20044;-73
2023/09/28 05:55:25;;;;;;;11.55;8.73;;;16.70;99.90;;;;;;5051854;28;20037;-73
2023/09/28 05:57:54;;;;;;;11.10;8.97;;;16.80;99.90;;;;;;5066977;28;20074;-73
2023/09/28 06:00:20;;;;;;;12.52;8.93;;;16.80;99.90;;;;;;5053168;28;20306;-74
2023/09/28 06:02:46;;;;;;;10.35;8.73;;;16.80;99.90;;;;;;5048622;28;20045;-74
2023/09/28 06:05:11;;;;;;;10.25;8.15;;;16.80;99.90;;;;;;5061157;28;20045;-73
2023/09/28 06:07:38;;;;;;;10.35;8.80;;;16.80;99.90;;;;;;5058169;28;20087;-74
2023/09/28 06:10:05;;;;;;;10.75;8.30;;;16.80;99.90;;;;;;5052165;28;20123;-75
2023/09/28 06:12:31;;;;;;;11.83;8.40;;;16.80;99.90;;;;;;5049494;28;20044;-74
2023/09/28 06:14:56;;;;;;;8.73;7.53;;;16.80;99.90;;;;;;5057167;28;20040;-75
2023/09/28 06:17:24;;;;;;;8.68;7.18;;;16.90;99.90;;;;;;5056436;28;20067;-73
2023/09/28 06:19:49;;;;;;;10.25;7.05;;;16.90;99.90;;;;;;5056072;28;20671;-74
2023/09/28 06:22:15;;;;;;;12.15;7.25;;;16.90;99.90;;;;;;5058731;28;20045;-74
2023/09/28 06:24:41;;;;;;;12.05;6.70;;;17.00;99.90;;;;;;5034447;28;20530;-74
2023/09/28 06:27:07;;;;;;;10.50;6.13;;;17.00;99.90;;;;;;5034483;28;20695;-75
2023/09/28 06:29:33;;;;;;;10.93;6.20;;;17.00;99.90;;;;;;5051972;28;20041;-75
2023/09/28 06:32:00;;;;;;;13.05;5.97;;;17.10;99.90;;;;;;5053254;28;20040;-75
2023/09/28 06:34:26;;;;;;;;;;;17.10;99.90;;;;;;5048188;28;20052;-74
2023/09/28 06:36:53;;;;;;;12.82;6.28;;;17.10;99.90;;;;;;5048764;28;19974;-75
2023/09/28 06:39:18;;;;;;;11.93;6.18;;;17.20;99.90;;;;;;5051112;28;20475;-75
2023/09/28 06:41:44;;;;;;;11.70;5.60;;;17.20;99.90;;;;;;5053264;28;20044;-74
2023/09/28 06:44:10;;;;;;;13.98;5.70;;;17.20;99.90;;;;;;5048592;28;20057;-74
2023/09/28 06:46:36;;;;;;;11.43;5.80;;;17.30;99.90;;;;;;5051029;28;20503;-74
2023/09/28 06:49:05;;;;;;;12.95;5.55;;;17.30;99.90;;;;;;5048567;28;20058;-75
2023/09/28 06:51:31;;;;;;;14.55;5.50;;;17.30;99.90;;;;;;5060249;28;20040;-74
2023/09/28 06:53:57;;;;;;;12.20;5.13;;;17.40;99.90;;;;;;5059996;28;20045;-74
2023/09/28 06:56:23;;;;;;;15.27;5.78;;;17.40;99.90;;;;;;5060882;28;20313;-72
2023/09/28 06:58:50;;;;;;;12.45;5.00;;;17.40;99.90;;;;;;5044789;28;20045;-74
2023/09/28 07:01:16;;;;;;;;;;;17.50;99.90;;;;;;5050438;28;20546;-75
2023/09/28 07:03:41;;;;;;;13.57;5.25;;;17.50;99.90;;;;;;5052005;28;20003;-74
2023/09/28 07:06:08;;;;;;;12.82;5.40;;;17.50;99.90;;;;;;5047691;28;20130;-72
2023/09/28 07:08:34;;;;;;;12.80;5.22;;;17.50;99.90;;;;;;5058884;28;20064;-73
2023/09/28 07:11:01;;;;;;;15.63;5.38;;;17.60;99.90;;;;;;5057780;28;20049;-72
2023/09/28 07:13:27;;;;;;;14.85;5.05;;;17.60;99.90;;;;;;5064326;28;20457;-73
2023/09/28 07:15:52;;;;;;;16.27;5.07;;;17.60;99.90;;;;;;5057810;28;20041;-73
2023/09/28 07:18:18;;;;;;;19.83;5.53;;;17.70;99.90;;;;;;5048321;28;20072;-72
2023/09/28 07:20:44;;;;;;;19.02;5.78;;;17.70;99.90;;;;;;5065558;28;20127;-73
2023/09/28 07:23:10;;;;;;;13.90;5.10;;;17.80;99.90;;;;;;5051732;28;20048;-74
2023/09/28 07:25:35;;;;;;;16.35;5.78;;;17.80;99.90;;;;;;5065696;28;20056;-75
2023/09/28 07:28:01;;;;;;;18.13;5.85;;;17.80;99.90;;;;;;5052993;28;20072;-75
2023/09/28 07:30:27;;;;;;;14.30;5.70;;;17.80;99.90;;;;;;5056999;28;20040;-75
2023/09/28 07:32:53;;;;;;;16.02;5.53;;;17.90;99.90;;;;;;5056327;28;20058;-75
2023/09/28 07:35:19;;;;;;;15.38;5.18;;;17.90;99.90;;;;;;5056749;28;20126;-74
2023/09/28 07:37:45;;;;;;;16.33;5.63;;;17.90;99.90;;;;;;5052342;28;20070;-73
2023/09/28 07:40:12;;;;;;;17.13;5.40;;;18.00;99.90;;;;;;5054704;28;20070;-73
2023/09/28 07:42:43;;;;;;;18.05;6.05;;;18.00;99.90;;;;;;5050875;28;20554;-73
2023/09/28 07:45:13;;;;;;;17.30;5.55;;;18.00;99.90;;;;;;5046784;28;20106;-73
2023/09/28 07:47:39;;;;;;;15.57;6.47;;;18.10;99.90;;;;;;5047570;28;20084;-75
2023/09/28 07:50:06;;;;;;;15.73;6.45;;;18.10;99.90;;;;;;5047542;28;20080;-75
2023/09/28 07:52:32;;;;;;;;;;;18.20;99.90;;;;;;5053448;28;20047;-76
2023/09/28 07:54:58;;;;;;;12.20;8.00;;;18.20;99.90;;;;;;5048684;28;19928;-75
2023/09/28 07:57:24;;;;;;;12.88;8.82;;;18.20;99.90;;;;;;5053523;28;20127;-72
2023/09/28 07:59:49;;;;;;;13.93;8.77;;;18.20;99.90;;;;;;5054839;28;20047;-74
2023/09/28 08:02:15;;;;;;;12.43;8.75;;;18.30;99.90;;;;;;5052906;28;20106;-73
2023/09/28 08:04:41;;;;;;;14.65;9.07;;;18.30;99.90;;;;;;5054277;28;20134;-73
2023/09/28 08:07:06;;;;;;;17.67;9.35;;;18.40;99.90;;;;;;5056393;28;20101;-73
2023/09/28 08:09:33;;;;;;;15.48;7.88;;;18.40;99.90;;;;;;5049066;28;20041;-73
2023/09/28 08:11:59;;;;;;;19.77;8.70;;;18.40;99.90;;;;;;5054998;28;20063;-73
2023/09/28 08:14:25;;;;;;;15.98;7.57;;;18.50;99.90;;;;;;5050469;28;20049;-73
2023/09/28 08:16:51;;;;;;;16.88;7.30;;;18.50;99.90;;;;;;5055868;28;20419;-73
2023/09/28 08:19:19;;;;;;;18.40;7.68;;;18.60;99.90;;;;;;5049272;28;20045;-73
2023/09/28 08:21:45;;;;;;;18.42;6.95;;;18.60;99.90;;;;;;5047188;28;20385;-74
2023/09/28 08:24:11;;;;;;;17.63;7.25;;;18.60;99.90;;;;;;5049133;28;20040;-74
2023/09/28 08:26:37;;;;;;;19.00;6.78;;;18.60;99.90;;;;;;5054454;28;20621;-73
2023/09/28 08:29:03;;;;;;;18.92;7.00;;;18.70;99.90;;;;;;5060508;28;20051;-73
2023/09/28 08:31:31;;;;;;;17.05;7.10;;;18.70;99.90;;;;;;5054763;28;20582;-73
2023/09/28 08:33:59;;;;;;;15.23;7.07;;;18.80;99.90;;;;;;5051804;28;20032;-75
2023/09/28 08:36:27;;;;;;;17.60;6.95;;;18.80;99.90;;;;;;5053073;28;20044;-72
2023/09/28 08:38:54;;;;;;;21.45;6.57;;;18.90;99.90;;;;;;5042686;28;20115;-73
2023/09/28 08:41:46;;;;;;;21.75;7.78;;;18.90;99.90;;;;;;5055510;28;20129;-73
2023/09/28 08:44:13;;;;;;;19.42;7.07;;;18.90;99.90;;;;;;5049982;28;20060;-74
2023/09/28 08:46:39;;;;;;;20.30;6.60;;;19.00;99.90;;;;;;5049061;28;20048;-74
2023/09/28 08:49:10;;;;;;;24.03;7.43;;;19.10;99.90;;;;;;5048848;28;20392;-73
2023/09/28 08:51:37;;;;;;;21.48;7.03;;;19.10;99.90;;;;;;5058494;28;20105;-74
2023/09/28 08:54:05;;;;;;;;;;;19.10;99.90;;;;;;5060193;28;20045;-74
2023/09/28 08:56:38;;;;;;;17.58;6.00;;;19.10;99.90;;;;;;5041995;28;19929;-76
2023/09/28 08:59:05;;;;;;;21.13;6.47;;;19.20;99.90;;;;;;5051069;28;20057;-80
2023/09/28 09:01:34;;;;;;;21.20;6.28;;;19.30;99.90;;;;;;5045593;28;20426;-76
2023/09/28 09:04:01;;;;;;;22.35;6.82;;;19.30;99.90;;;;;;5057900;28;20045;-76
2023/09/28 09:06:31;;;;;;;19.73;6.05;;;19.30;99.90;;;;;;5050921;28;20071;-74
2023/09/28 09:09:01;;;;;;;19.92;6.10;;;19.30;99.90;;;;;;5047271;28;20049;-75
2023/09/28 09:11:31;;;;;;;20.25;6.60;;;19.30;99.90;;;;;;5048074;28;20045;-76
2023/09/28 09:13:57;;;;;;;19.85;6.07;;;19.40;99.90;;;;;;5050032;28;20066;-75
2023/09/28 09:16:24;;;;;;;21.48;6.45;;;19.40;99.90;;;;;;5049309;28;20396;-77
2023/09/28 09:18:50;;;;;;;;;;;19.40;99.90;;;;;;5053839;28;20051;-75
2023/09/28 09:21:16;;;;;;;21.80;6.33;;;19.30;99.90;;;;;;5046941;28;19921;-75
2023/09/28 09:23:42;;;;;;;17.02;6.07;;;19.30;99.90;;;;;;5056641;28;20055;-78
2023/09/28 09:26:18;;;;;;;24.33;6.63;;;19.40;99.90;;;;;;5050424;28;20041;-73
2023/09/28 09:28:46;;;;;;;20.42;5.13;;;19.40;99.90;;;;;;5049317;28;20041;-75
2023/09/28 09:31:13;;;;;;;19.40;5.63;;;19.50;99.90;;;;;;5046803;28;20704;-79
2023/09/28 09:33:39;;;;;;;19.67;5.53;;;19.50;99.90;;;;;;5051707;28;20048;-76
2023/09/28 09:36:05;;;;;;;22.27;5.93;;;19.50;99.90;;;;;;5054930;28;20095;-74
2023/09/28 09:38:31;;;;;;;18.08;5.93;;;19.60;99.90;;;;;;5046785;28;20103;-74
2023/09/28 09:40:59;;;;;;;24.38;5.80;;;19.60;99.90;;;;;;5061418;28;20445;-75
2023/09/28 09:43:26;;;;;;;25.00;5.93;;;19.60;99.90;;;;;;5053837;28;20464;-75
2023/09/28 09:45:52;;;;;;;22.00;5.63;;;19.60;99.90;;;;;;5060372;28;20067;-75
2023/09/28 09:48:20;;;;;;;22.48;5.65;;;19.60;99.90;;;;;;5049595;28;20060;-78
2023/09/28 09:50:46;;;;;;;21.73;5.55;;;19.60;99.90;;;;;;5053204;28;20171;-74
2023/09/28 09:53:12;;;;;;;24.50;6.43;;;19.50;99.90;;;;;;5048132;28;20120;-74
2023/09/28 09:55:41;;;;;;;21.87;5.73;;;19.50;99.90;;;;;;5050097;28;20040;-74
2023/09/28 09:58:10;;;;;;;20.23;5.57;;;19.50;99.90;;;;;;5055079;28;20303;-76
2023/09/28 10:00:37;;;;;;;17.95;4.90;;;19.50;99.90;;;;;;5046194;28;20060;-74
2023/09/28 10:03:05;;;;;;;19.85;4.70;;;19.50;99.90;;;;;;5046409;28;20053;-74
2023/09/28 10:05:34;;;;;;;23.02;5.25;;;19.60;99.90;;;;;;5053201;28;20036;-75
2023/09/28 10:08:02;;;;;;;24.73;5.93;;;19.70;99.90;;;;;;5055846;28;20048;-75
2023/09/28 10:10:29;;;;;;;22.88;5.32;;;19.70;99.90;;;;;;5062945;28;20044;-75
2023/09/28 10:12:55;;;;;;;;;;;19.70;99.90;;;;;;5055065;28;20037;-76
2023/09/28 10:15:21;;;;;;;;;;;19.80;99.90;;;;;;5051524;28;19963;-74
2023/09/28 10:17:47;;;;;;;;;;;19.80;99.90;;;;;;5062114;28;19927;-74
2023/09/28 10:20:14;;;;;;;;;;;19.90;99.90;;;;;;5058960;28;19917;-73
2023/09/28 10:22:47;;;;;;;;;;;20.00;99.90;;;;;;5059218;28;19920;-73
2023/09/28 10:25:15;;;;;;;;;;;20.10;99.90;;;;;;5053636;28;19920;-74
2023/09/28 10:27:43;;;;;;;;;;;20.10;99.90;;;;;;5052883;28;19924;-73
2023/09/28 10:30:17;;;;;;;;;;;20.30;99.90;;;;;;5050758;28;20422;-72
2023/09/28 10:32:42;;;;;;;;;;;20.40;99.90;;;;;;5058149;28;20032;-73
2023/09/28 10:35:12;;;;;;;;;;;20.50;99.90;;;;;;5058567;28;20011;-73
2023/09/28 10:37:37;;;;;;;;;;;20.50;99.90;;;;;;5053835;28;19929;-74
2023/09/28 10:40:06;;;;;;;;;;;20.60;99.90;;;;;;5063184;28;19924;-77
2023/09/28 10:42:32;;;;;;;;;;;20.50;99.90;;;;;;5057063;28;19921;-76
2023/09/28 10:45:00;;;;;;;;;;;20.50;99.90;;;;;;5052801;28;19952;-76
2023/09/28 10:47:27;;;;;;;;;;;20.40;99.90;;;;;;5057287;28;20676;-76
2023/09/28 10:49:59;;;;;;;;;;;20.50;99.90;;;;;;5054518;28;19964;-74
2023/09/28 10:52:24;;;;;;;;;;;20.50;99.90;;;;;;5049338;28;20427;-76
2023/09/28 10:54:51;;;;;;;;;;;20.50;99.90;;;;;;5049424;28;19929;-77
2023/09/28 10:57:17;;;;;;;;;;;20.60;99.90;;;;;;5047781;28;19947;-76
2023/09/28 10:59:42;;;;;;;;;;;20.70;99.90;;;;;;5049568;28;19924;-77
2023/09/28 11:02:09;;;;;;;;;;;20.80;99.90;;;;;;5050856;28;19924;-76
2023/09/28 11:04:38;;;;;;;;;;;20.90;99.90;;;;;;5055562;28;19920;-76
2023/09/28 11:07:05;;;;;;;;;;;21.00;99.90;;;;;;5055366;28;19921;-78
2023/09/28 11:09:31;;;;;;;;;;;21.10;99.90;;;;;;5047670;28;19931;-76
2023/09/28 11:11:56;;;;;;;;;;;21.10;99.90;;;;;;5052572;28;19925;-76
2023/09/28 11:14:25;;;;;;;;;;;21.20;99.90;;;;;;5050123;28;19971;-77
2023/09/28 11:16:52;;;;;;;;;;;21.30;99.90;;;;;;5053893;28;20383;-78
2023/09/28 11:19:18;;;;;;;;;;;21.30;99.90;;;;;;5054367;28;19928;-78
2023/09/28 11:21:44;;;;;;;;;;;21.30;99.90;;;;;;5054068;28;19921;-77
2023/09/28 11:24:11;;;;;;;;;;;21.30;99.90;;;;;;5052226;28;19928;-77
2023/09/28 11:26:38;;;;;;;;;;;21.30;99.90;;;;;;5056823;28;19924;-77
2023/09/28 11:29:04;;;;;;;;;;;21.30;99.90;;;;;;5049388;28;19924;-77
2023/09/28 11:31:35;;;;;;;;;;;21.30;99.90;;;;;;5051294;28;19920;-76
2023/09/28 11:34:00;;;;;;;;;;;21.20;99.90;;;;;;5059269;28;19920;-74
2023/09/28 11:36:27;;;;;;;;;;;21.20;99.90;;;;;;5056598;28;19924;-74
2023/09/28 11:38:55;;;;;;;;;;;21.10;99.90;;;;;;5058270;28;19924;-74
2023/09/28 11:41:22;;;;;;;;;;;21.00;99.90;;;;;;5044457;28;19936;-74
2023/09/28 11:43:52;;;;;;;;;;;21.00;99.90;;;;;;5052567;28;19928;-75
2023/09/28 11:46:18;;;;;;;;;;;21.00;99.90;;;;;;5050402;28;21450;-74
2023/09/28 11:48:44;;;;;;;;;;;20.90;99.90;;;;;;5055085;28;20008;-74
2023/09/28 11:51:10;;;;;;;;;;;20.80;99.90;;;;;;5048261;28;19928;-75
2023/09/28 11:53:42;;;;;;;;;;;20.80;99.90;;;;;;5054438;28;19971;-76
2023/09/28 11:56:08;;;;;;;;;;;20.80;99.90;;;;;;5051072;28;19924;-76
2023/09/28 11:58:34;;;;;;;;;;;20.70;99.90;;;;;;5055352;28;19921;-76
2023/09/28 12:01:00;;;;;;;;;;;20.70;99.90;;;;;;5057353;28;19928;-76
2023/09/28 12:03:26;;;;;;;;;;;20.90;99.90;;;;;;5047378;28;19970;-77
2023/09/28 12:05:52;;;;;;;;;;;21.00;99.90;;;;;;5050849;28;20003;-76
2023/09/28 12:08:17;;;;;;;;;;;21.20;99.90;;;;;;5055750;28;19978;-76
2023/09/28 12:10:43;;;;;;;;;;;21.30;99.90;;;;;;5056875;28;20000;-75
2023/09/28 12:13:08;;;;;;;;;;;21.40;99.90;;;;;;5050839;28;20028;-76
2023/09/28 12:15:34;;;;;;;;;;;21.50;99.90;;;;;;5048065;28;20047;-75
2023/09/28 12:18:00;;;;;;;;;;;21.50;99.90;;;;;;5059843;28;20549;-75
2023/09/28 12:20:25;;;;;;;;;;;21.60;99.90;;;;;;5063560;28;20003;-76
2023/09/28 12:22:52;;;;;;;;;;;21.70;99.90;;;;;;5057711;28;19928;-76
2023/09/28 12:25:18;;;;;;;;;;;21.60;99.90;;;;;;5035356;28;19932;-76
2023/09/28 12:27:44;;;;;;;;;;;21.60;99.90;;;;;;5048837;28;19920;-76
2023/09/28 12:30:12;;;;;;;;;;;21.60;99.90;;;;;;5049477;28;20015;-76
2023/09/28 12:32:38;;;;;;;;;;;21.60;99.90;;;;;;5053067;28;19916;-76
2023/09/28 12:35:07;;;;;;;;;;;21.60;99.90;;;;;;5058730;28;20386;-77
2023/09/28 12:37:35;;;;;;;;;;;21.70;99.90;;;;;;5046736;28;19967;-78
2023/09/28 12:40:03;;;;;;;;;;;21.80;99.90;;;;;;5048944;28;19916;-79
2023/09/28 12:42:29;;;;;;;;;;;21.90;99.90;;;;;;5051407;28;19928;-78
2023/09/28 12:44:58;;;;;;;;;;;21.90;99.90;;;;;;5051274;28;19932;-78
2023/09/28 12:47:24;;;;;;;;;;;21.90;99.90;;;;;;5047820;28;19943;-76
2023/09/28 12:49:50;;;;;;;;;;;21.90;99.90;;;;;;5057490;28;20782;-80
2023/09/28 12:52:16;;;;;;;;;;;21.90;99.90;;;;;;5050401;28;19986;-77
2023/09/28 12:54:43;;;;;;;;;;;21.90;99.90;;;;;;5055947;28;19925;-76
2023/09/28 12:57:08;;;;;;;;;;;21.90;99.90;;;;;;5051056;28;19924;-77